Time;durP1;ratioP1;P1;durP2;ratioP2;P2;SDS_P1;SDS_P2;PMS_P1;PMS_P2;Temp;Humidity;BMP_temperature;BMP_pressure;BME280_temperature;BME280_humidity;BME280_pressure;Samples;Min_cycle;Max_cycle;Signal;HPM_P1;HPM_P2
2022/07/04 00:02:23;;;;;;;;;;;;;;;;;;5095038;28;19913;-41
2022/07/04 00:04:48;;;;;;;;;;;;;;;;;;5095444;28;20370;-41
2022/07/04 00:07:13;;;;;;;;;;;;;;;;;;5095206;28;19908;-41
2022/07/04 00:09:39;;;;;;;;;;;;;;;;;;5095365;28;20355;-41
2022/07/04 00:12:05;;;;;;;;;;;;;;;;;;5095028;28;19955;-41
2022/07/04 00:14:30;;;;;;;;;;;;;;;;;;5094851;28;20287;-41
2022/07/04 00:16:55;;;;;;;;;;;;;;;;;;5094775;28;19912;-41
2022/07/04 00:19:20;;;;;;;;;;;;;;;;;;5095387;28;19912;-41
2022/07/04 00:21:45;;;;;;;;;;;;;;;;;;5094963;28;20002;-41
2022/07/04 00:24:10;;;;;;;;;;;;;;;;;;5095163;28;19908;-41
2022/07/04 00:26:35;;;;;;;;;;;;;;;;;;5095241;28;19972;-40
2022/07/04 00:29:01;;;;;;;;;;;;;;;;;;5094943;28;20386;-41
2022/07/04 00:31:26;;;;;;;;;;;;;;;;;;5094897;28;20002;-41
2022/07/04 00:33:51;;;;;;;;;;;;;;;;;;5094836;28;19974;-40
2022/07/04 00:36:16;;;;;;;;;;;;;;;;;;5094997;28;19943;-40
2022/07/04 00:38:41;;;;;;;;;;;;;;;;;;5095005;28;19908;-41
2022/07/04 00:41:06;;;;;;;;;;;;;;;;;;5094826;28;19916;-41
2022/07/04 00:43:31;;;;;;;;;;;;;;;;;;5094915;28;19908;-40
2022/07/04 00:45:57;;;;;;;;;;;;;;;;;;5095758;28;19938;-41
2022/07/04 00:48:22;;;;;;;;;;;;;;;;;;5098510;28;19970;-42
2022/07/04 00:50:47;;;;;;;;;;;;;;;;;;5098376;28;19912;-41
2022/07/04 00:53:12;;;;;;;;;;;;;;;;;;5098368;28;19919;-41
2022/07/04 00:55:37;;;;;;;;;;;;;;;;;;5098402;28;19960;-40
2022/07/04 00:58:02;;;;;;;;;;;;;;;;;;5098516;28;19915;-40
2022/07/04 01:00:27;;;;;;;;;;;;;;;;;;5098498;28;19916;-41
2022/07/04 01:02:52;;;;;;;;;;;;;;;;;;5098537;28;19908;-41
2022/07/04 01:05:18;;;;;;;;;;;;;;;;;;5098315;28;19912;-41
2022/07/04 01:07:43;;;;;;;;;;;;;;;;;;5098267;28;19908;-40
2022/07/04 01:10:08;;;;;;;;;;;;;;;;;;5098583;28;19961;-41
2022/07/04 01:12:33;;;;;;;;;;;;;;;;;;5096765;28;20360;-40
2022/07/04 01:14:58;;;;;;;;;;;;;;;;;;5098529;28;19904;-41
2022/07/04 01:17:23;;;;;;;;;;;;;;;;;;5098051;28;19908;-41
2022/07/04 01:19:48;;;;;;;;;;;;;;;;;;5098174;28;19908;-41
2022/07/04 01:22:13;;;;;;;;;;;;;;;;;;5098403;28;20011;-41
2022/07/04 01:24:39;;;;;;;;;;;;;;;;;;5098258;28;19983;-41
2022/07/04 01:27:04;;;;;;;;;;;;;;;;;;5098006;28;20011;-41
2022/07/04 01:29:29;;;;;;;;;;;;;;;;;;5098024;28;19977;-41
2022/07/04 01:31:54;;;;;;;;;;;;;;;;;;5097817;28;19916;-41
2022/07/04 01:34:19;;;;;;;;;;;;;;;;;;5098183;28;19908;-42
2022/07/04 01:36:44;;;;;;;;;;;;;;;;;;5098122;28;19946;-41
2022/07/04 01:39:09;;;;;;;;;;;;;;;;;;5097718;28;20377;-41
2022/07/04 01:41:35;;;;;;;;;;;;;;;;;;5097032;28;19912;-41
2022/07/04 01:44:00;;;;;;;;;;;;;;;;;;5098109;28;19931;-41
2022/07/04 01:46:25;;;;;;;;;;;;;;;;;;5097730;28;19919;-42
2022/07/04 01:48:50;;;;;;;;;;;;;;;;;;5097714;28;19915;-41
2022/07/04 01:51:15;;;;;;;;;;;;;;;;;;5097883;28;20271;-41
2022/07/04 01:53:40;;;;;;;;;;;;;;;;;;5098039;28;19908;-41
2022/07/04 01:56:05;;;;;;;;;;;;;;;;;;5097681;28;19915;-42
2022/07/04 01:58:30;;;;;;;;;;;;;;;;;;5096840;28;19915;-42
2022/07/04 02:03:40;;;;;;;;;;;;;;;;;;5097477;28;19954;-41
2022/07/04 02:06:05;;;;;;;;;;;;;;;;;;5097369;28;19912;-41
2022/07/04 02:09:14;;;;;;;;;;;;;;;;;;5097514;28;19931;-42
2022/07/04 02:11:15;;;;;;;;;;;;;;;;;;5097169;28;19908;-41
2022/07/04 02:13:40;;;;;;;;;;;;;;;;;;5097228;28;19961;-41
2022/07/04 02:16:05;;;;;;;;;;;;;;;;;;5096983;28;19919;-41
2022/07/04 02:18:30;;;;;;;;;;;;;;;;;;5096994;28;19915;-42
2022/07/04 02:20:55;;;;;;;;;;;;;;;;;;5096805;28;19912;-41
2022/07/04 02:23:20;;;;;;;;;;;;;;;;;;5097028;28;20283;-42
2022/07/04 02:25:45;;;;;;;;;;;;;;;;;;5097015;28;19908;-41
2022/07/04 02:28:10;;;;;;;;;;;;;;;;;;5096796;28;19908;-41
2022/07/04 02:30:36;;;;;;;;;;;;;;;;;;5097023;28;20006;-41
2022/07/04 02:33:01;;;;;;;;;;;;;;;;;;5081236;28;20356;-41
2022/07/04 02:35:26;;;;;;;;;;;;;;;;;;5095976;28;19922;-42
2022/07/04 02:37:51;;;;;;;;;;;;;;;;;;5096769;28;19908;-42
2022/07/04 02:40:16;;;;;;;;;;;;;;;;;;5096896;28;19961;-41
2022/07/04 02:42:41;;;;;;;;;;;;;;;;;;5097264;28;19944;-41
2022/07/04 02:45:06;;;;;;;;;;;;;;;;;;5095308;28;19991;-42
2022/07/04 02:47:31;;;;;;;;;;;;;;;;;;5096524;28;19908;-41
2022/07/04 02:49:57;;;;;;;;;;;;;;;;;;5096749;28;19916;-41
2022/07/04 02:52:22;;;;;;;;;;;;;;;;;;5096630;28;20372;-42
2022/07/04 02:54:48;;;;;;;;;;;;;;;;;;5096621;28;19919;-41
2022/07/04 02:57:13;;;;;;;;;;;;;;;;;;5096960;28;19912;-42
2022/07/04 02:59:38;;;;;;;;;;;;;;;;;;5096228;28;19966;-41
2022/07/04 03:02:03;;;;;;;;;;;;;;;;;;5096460;28;20355;-41
2022/07/04 03:04:28;;;;;;;;;;;;;;;;;;5096035;28;20313;-41
2022/07/04 03:06:53;;;;;;;;;;;;;;;;;;5096980;28;19933;-42
2022/07/04 03:09:18;;;;;;;;;;;;;;;;;;5095268;28;20025;-41
2022/07/04 03:11:44;;;;;;;;;;;;;;;;;;5096341;28;19908;-41
2022/07/04 03:14:09;;;;;;;;;;;;;;;;;;5095929;28;19908;-42
2022/07/04 03:16:34;;;;;;;;;;;;;;;;;;5096297;28;19908;-41
2022/07/04 03:18:59;;;;;;;;;;;;;;;;;;5096135;28;19908;-41
2022/07/04 03:21:24;;;;;;;;;;;;;;;;;;5095915;28;20274;-41
2022/07/04 03:23:58;;;;;;;;;;;;;;;;;;5095905;28;19915;-41
2022/07/04 03:26:24;;;;;;;;;;;;;;;;;;5096182;28;19908;-41
2022/07/04 03:28:49;;;;;;;;;;;;;;;;;;5095986;28;20256;-41
2022/07/04 03:31:14;;;;;;;;;;;;;;;;;;5095980;28;19914;-41
2022/07/04 03:33:39;;;;;;;;;;;;;;;;;;5095439;28;19959;-41
2022/07/04 03:36:04;;;;;;;;;;;;;;;;;;5095928;28;20283;-41
2022/07/04 03:38:30;;;;;;;;;;;;;;;;;;5095750;28;19912;-42
2022/07/04 03:40:55;;;;;;;;;;;;;;;;;;5095641;28;19912;-41
2022/07/04 03:43:20;;;;;;;;;;;;;;;;;;5095574;28;19908;-41
2022/07/04 03:45:45;;;;;;;;;;;;;;;;;;5095799;28;19912;-41
2022/07/04 03:48:10;;;;;;;;;;;;;;;;;;5095331;28;19908;-41
2022/07/04 03:50:35;;;;;;;;;;;;;;;;;;5095510;28;20008;-41
2022/07/04 03:53:00;;;;;;;;;;;;;;;;;;5095257;28;20003;-41
2022/07/04 03:55:25;;;;;;;;;;;;;;;;;;5095327;28;19912;-41
2022/07/04 03:57:51;;;;;;;;;;;;;;;;;;5095624;28;20386;-41
2022/07/04 04:00:16;;;;;;;;;;;;;;;;;;5095660;28;19908;-41
2022/07/04 04:02:41;;;;;;;;;;;;;;;;;;5095204;28;19943;-41
2022/07/04 04:07:50;;;;;;;;;;;;;;;;;;5095474;28;19962;-41
2022/07/04 04:10:15;;;;;;;;;;;;;;;;;;5095260;28;19912;-41
2022/07/04 04:12:40;;;;;;;;;;;;;;;;;;5095176;28;19961;-41
2022/07/04 04:15:05;;;;;;;;;;;;;;;;;;5095175;28;19912;-42
2022/07/04 04:17:30;;;;;;;;;;;;;;;;;;5094958;28;20348;-42
2022/07/04 04:19:56;;;;;;;;;;;;;;;;;;5095186;28;20290;-41
2022/07/04 04:22:21;;;;;;;;;;;;;;;;;;5098732;28;20480;-41
2022/07/04 04:24:46;;;;;;;;;;;;;;;;;;5099285;28;19915;-41
2022/07/04 04:27:11;;;;;;;;;;;;;;;;;;5099602;28;19908;-41
2022/07/04 04:29:36;;;;;;;;;;;;;;;;;;5099398;28;19915;-41
2022/07/04 04:32:01;;;;;;;;;;;;;;;;;;5099337;28;19920;-41
2022/07/04 04:34:26;;;;;;;;;;;;;;;;;;5099434;28;19965;-41
2022/07/04 04:36:51;;;;;;;;;;;;;;;;;;5099707;28;19915;-41
2022/07/04 04:39:16;;;;;;;;;;;;;;;;;;5099492;28;19929;-41
2022/07/04 04:41:42;;;;;;;;;;;;;;;;;;5099278;28;19912;-42
2022/07/04 04:44:07;;;;;;;;;;;;;;;;;;5099150;28;19912;-41
2022/07/04 04:46:32;;;;;;;;;;;;;;;;;;5098988;28;19995;-42
2022/07/04 04:48:57;;;;;;;;;;;;;;;;;;5098732;28;19908;-43
2022/07/04 04:51:22;;;;;;;;;;;;;;;;;;5098756;28;19908;-41
2022/07/04 04:53:47;;;;;;;;;;;;;;;;;;5098533;28;20006;-41
2022/07/04 04:56:12;;;;;;;;;;;;;;;;;;5098389;28;19954;-42
2022/07/04 04:58:37;;;;;;;;;;;;;;;;;;5098253;28;19916;-41
2022/07/04 05:01:03;;;;;;;;;;;;;;;;;;5098394;28;20398;-41
2022/07/04 05:03:28;;;;;;;;;;;;;;;;;;5098491;28;19931;-41
2022/07/04 05:05:53;;;;;;;;;;;;;;;;;;5098348;28;19915;-41
2022/07/04 05:08:18;;;;;;;;;;;;;;;;;;5098123;28;19939;-42
2022/07/04 05:10:43;;;;;;;;;;;;;;;;;;5098398;28;20359;-42
2022/07/04 05:13:08;;;;;;;;;;;;;;;;;;5098238;28;19919;-42
2022/07/04 05:15:33;;;;;;;;;;;;;;;;;;5098245;28;19915;-41
2022/07/04 05:17:58;;;;;;;;;;;;;;;;;;5098127;28;20012;-42
2022/07/04 05:20:23;;;;;;;;;;;;;;;;;;5088376;28;20055;-42
2022/07/04 05:22:49;;;;;;;;;;;;;;;;;;5077650;28;19951;-41
2022/07/04 05:25:14;;;;;;;;;;;;;;;;;;5077874;28;20402;-41
2022/07/04 05:27:39;;;;;;;;;;;;;;;;;;5092051;28;20381;-41
2022/07/04 05:30:05;;;;;;;;;;;;;;;;;;5081410;28;19925;-42
2022/07/04 05:32:30;;;;;;;;;;;;;;;;;;5081964;28;20034;-41
2022/07/04 05:34:56;;;;;;;;;;;;;;;;;;5098718;28;19955;-49
2022/07/04 05:37:21;;;;;;;;;;;;;;;;;;5084054;28;19927;-45
2022/07/04 05:39:46;;;;;;;;;;;;;;;;;;5088450;28;20007;-46
2022/07/04 05:42:11;;;;;;;;;;;;;;;;;;5077182;28;20320;-46
2022/07/04 05:44:36;;;;;;;;;;;;;;;;;;5071065;28;20413;-47
2022/07/04 05:47:01;;;;;;;;;;;;;;;;;;5078761;28;19919;-45
2022/07/04 05:49:27;;;;;;;;;;;;;;;;;;5067313;28;19927;-47
2022/07/04 05:51:52;;;;;;;;;;;;;;;;;;5071082;28;19927;-47
2022/07/04 05:54:17;;;;;;;;;;;;;;;;;;5037868;28;23066;-48
2022/07/04 05:56:42;;;;;;;;;;;;;;;;;;5057274;28;20679;-47
2022/07/04 05:59:07;;;;;;;;;;;;;;;;;;5051063;28;19966;-48
2022/07/04 06:01:32;;;;;;;;;;;;;;;;;;5058619;28;20603;-46
2022/07/04 06:03:58;;;;;;;;;;;;;;;;;;5039285;28;20521;-47
2022/07/04 06:06:23;;;;;;;;;;;;;;;;;;5033216;28;19921;-46
2022/07/04 06:08:48;;;;;;;;;;;;;;;;;;4997342;28;22346;-47
2022/07/04 06:11:14;;;;;;;;;;;;;;;;;;4956304;28;20074;-46
2022/07/04 06:13:39;;;;;;;;;;;;;;;;;;4884225;28;19962;-46
2022/07/04 06:16:04;;;;;;;;;;;;;;;;;;4794917;28;22314;-47
2022/07/04 06:18:30;;;;;;;;;;;;;;;;;;4730009;28;21589;-47
2022/07/04 06:20:55;;;;;;;;;;;;;;;;;;4632956;28;20067;-48
2022/07/04 06:23:20;;;;;;;;;;;;;;;;;;4633057;28;20777;-46
2022/07/04 06:25:45;;;;;;;;;;;;;;;;;;4644528;28;20650;-47
2022/07/04 06:28:10;;;;;;;;;;;;;;;;;;4762246;28;19920;-47
2022/07/04 06:30:36;;;;;;;;;;;;;;;;;;4834203;28;21348;-47
2022/07/04 06:33:01;;;;;;;;;;;;;;;;;;4880122;28;19928;-46
2022/07/04 06:35:44;;;;;;;;;;;;;;;;;;4900275;28;20038;-46
2022/07/04 06:38:10;;;;;;;;;;;;;;;;;;4887416;28;24012;-47
2022/07/04 06:40:35;;;;;;;;;;;;;;;;;;4896361;28;19920;-45
2022/07/04 06:43:00;;;;;;;;;;;;;;;;;;4914328;28;30607;-47
2022/07/04 06:45:25;;;;;;;;;;;;;;;;;;4909797;28;19927;-46
2022/07/04 06:47:50;;;;;;;;;;;;;;;;;;4911344;28;19920;-47
2022/07/04 06:50:16;;;;;;;;;;;;;;;;;;4903937;28;19920;-43
2022/07/04 06:52:41;;;;;;;;;;;;;;;;;;4899941;28;19920;-43
2022/07/04 06:55:06;;;;;;;;;;;;;;;;;;4872405;28;19924;-45
2022/07/04 06:57:31;;;;;;;;;;;;;;;;;;4883622;28;19967;-45
2022/07/04 06:59:56;;;;;;;;;;;;;;;;;;4913552;28;20031;-46
2022/07/04 07:02:21;;;;;;;;;;;;;;;;;;4879925;28;21574;-44
2022/07/04 07:04:46;;;;;;;;;;;;;;;;;;4890301;28;19920;-45
2022/07/04 07:07:12;;;;;;;;;;;;;;;;;;4901032;28;20077;-48
2022/07/04 07:09:37;;;;;;;;;;;;;;;;;;4896655;28;20007;-48
2022/07/04 07:12:02;;;;;;;;;;;;;;;;;;4901535;28;20001;-46
2022/07/04 07:14:27;;;;;;;;;;;;;;;;;;4898919;28;19927;-50
2022/07/04 07:16:52;;;;;;;;;;;;;;;;;;4916376;28;19920;-45
2022/07/04 07:19:17;;;;;;;;;;;;;;;;;;4888632;28;19934;-44
2022/07/04 07:21:42;;;;;;;;;;;;;;;;;;4796829;28;21623;-46
2022/07/04 07:24:07;;;;;;;;;;;;;;;;;;4743219;28;26842;-45
2022/07/04 07:26:33;;;;;;;;;;;;;;;;;;4765301;28;23863;-46
2022/07/04 07:28:58;;;;;;;;;;;;;;;;;;4793010;28;21883;-46
2022/07/04 07:31:23;;;;;;;;;;;;;;;;;;4823869;28;21435;-41
2022/07/04 07:33:48;;;;;;;;;;;;;;;;;;4805907;28;33053;-46
2022/07/04 07:36:13;;;;;;;;;;;;;;;;;;4817474;28;29701;-45
2022/07/04 07:38:38;;;;;;;;;;;;;;;;;;4810928;28;19943;-48
2022/07/04 07:41:03;;;;;;;;;;;;;;;;;;4799498;28;21500;-48
2022/07/04 07:43:29;;;;;;;;;;;;;;;;;;4780294;28;20853;-45
2022/07/04 07:45:54;;;;;;;;;;;;;;;;;;4774071;28;22196;-44
2022/07/04 07:48:19;;;;;;;;;;;;;;;;;;4803946;28;19920;-44
2022/07/04 07:50:46;;;;;;;;;;;;;;;;;;4891154;28;22915;-46
2022/07/04 07:53:12;;;;;;;;;;;;;;;;;;4900782;28;20053;-45
2022/07/04 07:55:37;;;;;;;;;;;;;;;;;;4905798;28;23955;-46
2022/07/04 07:58:02;;;;;;;;;;;;;;;;;;4902987;28;23283;-46
2022/07/04 08:00:27;;;;;;;;;;;;;;;;;;4897078;28;21766;-46
2022/07/04 08:05:36;;;;;;;;;;;;;;;;;;4905789;28;19926;-47
2022/07/04 08:08:01;;;;;;;;;;;;;;;;;;4899515;28;22520;-46
2022/07/04 08:10:26;;;;;;;;;;;;;;;;;;4900595;28;19920;-43
2022/07/04 08:12:52;;;;;;;;;;;;;;;;;;4843382;28;19952;-46
2022/07/04 08:15:17;;;;;;;;;;;;;;;;;;4788023;28;19950;-44
2022/07/04 08:17:42;;;;;;;;;;;;;;;;;;4755837;28;21765;-44
2022/07/04 08:20:07;;;;;;;;;;;;;;;;;;4822781;28;20000;-47
2022/07/04 08:22:32;;;;;;;;;;;;;;;;;;4845191;28;28312;-46
2022/07/04 08:24:57;;;;;;;;;;;;;;;;;;4860830;28;21218;-46
2022/07/04 08:27:23;;;;;;;;;;;;;;;;;;4862004;28;19926;-43
2022/07/04 08:29:48;;;;;;;;;;;;;;;;;;4869626;28;21815;-45
2022/07/04 08:32:13;;;;;;;;;;;;;;;;;;4834829;28;19928;-44
2022/07/04 08:34:38;;;;;;;;;;;;;;;;;;4839031;28;22656;-44
2022/07/04 08:37:03;;;;;;;;;;;;;;;;;;4837380;28;19960;-46
2022/07/04 08:39:28;;;;;;;;;;;;;;;;;;4835384;28;20444;-48
2022/07/04 08:41:54;;;;;;;;;;;;;;;;;;4701336;28;22741;-46
2022/07/04 08:44:19;;;;;;;;;;;;;;;;;;4557385;28;21440;-44
2022/07/04 08:46:44;;;;;;;;;;;;;;;;;;4649132;28;21405;-44
2022/07/04 08:49:09;;;;;;;;;;;;;;;;;;4754542;28;21802;-44
2022/07/04 08:51:34;;;;;;;;;;;;;;;;;;4845464;28;22254;-45
2022/07/04 08:53:59;;;;;;;;;;;;;;;;;;4881500;28;24027;-44
2022/07/04 08:59:08;;;;;;;;;;;;;;;;;;4933348;28;32126;-44
2022/07/04 09:01:33;;;;;;;;;;;;;;;;;;4928596;28;21567;-44
2022/07/04 09:03:58;;;;;;;;;;;;;;;;;;4911637;28;19969;-44
2022/07/04 09:06:24;;;;;;;;;;;;;;;;;;4920023;28;20041;-44
2022/07/04 09:08:49;;;;;;;;;;;;;;;;;;4937869;28;19920;-47
2022/07/04 09:11:14;;;;;;;;;;;;;;;;;;4959052;28;20011;-44
2022/07/04 09:13:39;;;;;;;;;;;;;;;;;;4945692;28;19955;-44
2022/07/04 09:16:04;;;;;;;;;;;;;;;;;;4972750;28;19927;-43
2022/07/04 09:18:29;;;;;;;;;;;;;;;;;;4988594;28;20550;-44
2022/07/04 09:20:54;;;;;;;;;;;;;;;;;;4999169;28;20422;-44
2022/07/04 09:23:20;;;;;;;;;;;;;;;;;;4985516;28;21269;-45
2022/07/04 09:25:45;;;;;;;;;;;;;;;;;;4999419;28;20394;-45
2022/07/04 09:28:10;;;;;;;;;;;;;;;;;;4998743;28;20044;-44
2022/07/04 09:30:35;;;;;;;;;;;;;;;;;;4999856;28;20284;-46
2022/07/04 09:33:02;;;;;;;;;;;;;;;;;;4992524;28;19928;-44
2022/07/04 09:35:27;;;;;;;;;;;;;;;;;;5003351;28;19920;-46
2022/07/04 09:37:52;;;;;;;;;;;;;;;;;;5007089;28;19970;-45
2022/07/04 09:40:17;;;;;;;;;;;;;;;;;;4996605;28;19928;-43
2022/07/04 09:42:42;;;;;;;;;;;;;;;;;;4994547;28;19943;-44
2022/07/04 09:45:08;;;;;;;;;;;;;;;;;;4936544;28;21048;-45
2022/07/04 09:47:33;;;;;;;;;;;;;;;;;;4899257;28;20457;-45
2022/07/04 09:49:58;;;;;;;;;;;;;;;;;;4911827;28;20669;-44
2022/07/04 09:52:23;;;;;;;;;;;;;;;;;;4940694;28;19920;-46
2022/07/04 09:54:48;;;;;;;;;;;;;;;;;;4946957;28;20023;-47
2022/07/04 09:57:13;;;;;;;;;;;;;;;;;;4968462;28;19996;-44
2022/07/04 09:59:38;;;;;;;;;;;;;;;;;;4976035;28;19920;-45
2022/07/04 10:02:03;;;;;;;;;;;;;;;;;;4974968;28;19924;-46
2022/07/04 10:04:29;;;;;;;;;;;;;;;;;;4965587;28;19978;-44
2022/07/04 10:06:54;;;;;;;;;;;;;;;;;;4982573;28;19920;-47
2022/07/04 10:09:19;;;;;;;;;;;;;;;;;;4983770;28;19968;-44
2022/07/04 10:11:44;;;;;;;;;;;;;;;;;;4993308;28;19920;-44
2022/07/04 10:14:09;;;;;;;;;;;;;;;;;;5007623;28;19927;-44
2022/07/04 10:16:34;;;;;;;;;;;;;;;;;;4980429;28;20744;-44
2022/07/04 10:18:59;;;;;;;;;;;;;;;;;;5003307;28;19960;-46
2022/07/04 10:21:24;;;;;;;;;;;;;;;;;;5002652;28;19998;-46
2022/07/04 10:23:50;;;;;;;;;;;;;;;;;;4996591;28;21973;-44
2022/07/04 10:26:15;;;;;;;;;;;;;;;;;;4978950;28;20614;-45
2022/07/04 10:28:40;;;;;;;;;;;;;;;;;;4966976;28;26689;-46
2022/07/04 10:31:05;;;;;;;;;;;;;;;;;;4986226;28;19927;-44
2022/07/04 10:33:30;;;;;;;;;;;;;;;;;;4953838;22;20380;-46
2022/07/04 10:35:55;;;;;;;;;;;;;;;;;;4906635;28;20926;-46
2022/07/04 10:38:20;;;;;;;;;;;;;;;;;;4919628;28;19921;-46
2022/07/04 10:40:45;;;;;;;;;;;;;;;;;;4920293;28;20730;-45
2022/07/04 10:43:11;;;;;;;;;;;;;;;;;;4927917;28;20566;-43
2022/07/04 10:45:38;;;;;;;;;;;;;;;;;;4940244;28;20059;-44
2022/07/04 10:48:03;;;;;;;;;;;;;;;;;;4945639;28;20625;-43
2022/07/04 10:50:28;;;;;;;;;;;;;;;;;;4958208;28;19925;-43
2022/07/04 10:52:53;;;;;;;;;;;;;;;;;;4937078;28;20056;-45
2022/07/04 10:55:19;;;;;;;;;;;;;;;;;;4929078;28;19974;-45
2022/07/04 10:57:44;;;;;;;;;;;;;;;;;;4904509;28;19947;-47
2022/07/04 11:00:10;;;;;;;;;;;;;;;;;;4937851;28;20364;-46
2022/07/04 11:02:35;;;;;;;;;;;;;;;;;;4928593;28;19929;-43
2022/07/04 11:05:03;;;;;;;;;;;;;;;;;;4939814;28;19924;-45
2022/07/04 11:07:28;;;;;;;;;;;;;;;;;;4981356;28;19921;-45
2022/07/04 11:09:53;;;;;;;;;;;;;;;;;;4984564;28;20662;-44
2022/07/04 11:12:18;;;;;;;;;;;;;;;;;;4991406;28;20407;-44
2022/07/04 11:14:44;;;;;;;;;;;;;;;;;;5008533;28;20067;-46
2022/07/04 11:17:09;;;;;;;;;;;;;;;;;;5008185;28;19921;-44
2022/07/04 11:19:34;;;;;;;;;;;;;;;;;;5007060;28;21825;-45
2022/07/04 11:21:59;;;;;;;;;;;;;;;;;;5007145;28;19916;-48
2022/07/04 11:24:24;;;;;;;;;;;;;;;;;;5014013;28;19928;-45
2022/07/04 11:26:49;;;;;;;;;;;;;;;;;;5006889;28;19925;-44
2022/07/04 11:29:15;;;;;;;;;;;;;;;;;;5001012;28;20667;-43
2022/07/04 11:31:40;;;;;;;;;;;;;;;;;;5014699;28;19921;-47
2022/07/04 11:34:05;;;;;;;;;;;;;;;;;;5006869;28;20394;-44
2022/07/04 11:36:30;;;;;;;;;;;;;;;;;;5005678;28;20015;-44
2022/07/04 11:38:55;;;;;;;;;;;;;;;;;;5018511;28;20498;-44
2022/07/04 11:46:49;;;;;;;;;;;;;;;;;;5017754;28;19966;-45
2022/07/04 11:49:14;;;;;;;;;;;;;;;;;;5024361;28;19913;-44
2022/07/04 11:51:39;;;;;;;;;;;;;;;;;;5007938;28;19920;-44
2022/07/04 11:54:04;;;;;;;;;;;;;;;;;;5009485;28;19921;-45
2022/07/04 11:56:30;;;;;;;;;;;;;;;;;;5012777;28;19920;-45
2022/07/04 11:58:55;;;;;;;;;;;;;;;;;;5017470;28;19921;-45
2022/07/04 12:01:20;;;;;;;;;;;;;;;;;;5021508;28;19924;-46
2022/07/04 12:03:45;;;;;;;;;;;;;;;;;;4988017;28;19928;-45
2022/07/04 12:06:10;;;;;;;;;;;;;;;;;;4994415;28;19928;-45
2022/07/04 12:08:35;;;;;;;;;;;;;;;;;;4995838;28;20022;-46
2022/07/04 12:11:00;;;;;;;;;;;;;;;;;;5011670;28;19927;-46
2022/07/04 12:13:26;;;;;;;;;;;;;;;;;;5023835;28;19917;-46
2022/07/04 12:15:52;;;;;;;;;;;;;;;;;;5027551;28;19940;-45
2022/07/04 12:18:17;;;;;;;;;;;;;;;;;;5026991;28;19909;-44
2022/07/04 12:20:42;;;;;;;;;;;;;;;;;;5025569;28;19924;-47
2022/07/04 12:23:07;;;;;;;;;;;;;;;;;;5033343;28;20279;-48
2022/07/04 12:25:34;;;;;;;;;;;;;;;;;;5034544;28;19920;-43
2022/07/04 12:27:59;;;;;;;;;;;;;;;;;;5036190;28;19913;-45
2022/07/04 12:30:24;;;;;;;;;;;;;;;;;;5040049;28;20388;-46
2022/07/04 12:32:49;;;;;;;;;;;;;;;;;;5033834;28;20391;-45
2022/07/04 12:35:14;;;;;;;;;;;;;;;;;;5036730;28;19917;-47
2022/07/04 12:37:39;;;;;;;;;;;;;;;;;;5020928;28;19921;-44
2022/07/04 12:40:04;;;;;;;;;;;;;;;;;;5032094;28;19917;-44
2022/07/04 12:42:29;;;;;;;;;;;;;;;;;;5041505;28;19979;-44
2022/07/04 12:44:55;;;;;;;;;;;;;;;;;;5038765;28;19959;-47
2022/07/04 12:47:20;;;;;;;;;;;;;;;;;;5037446;28;20069;-45
2022/07/04 12:49:45;;;;;;;;;;;;;;;;;;5040501;28;19959;-47
2022/07/04 12:52:10;;;;;;;;;;;;;;;;;;5041130;28;19917;-45
2022/07/04 12:54:35;;;;;;;;;;;;;;;;;;5042998;28;19920;-44
2022/07/04 12:57:00;;;;;;;;;;;;;;;;;;5043016;28;19913;-45
2022/07/04 12:59:25;;;;;;;;;;;;;;;;;;5045408;28;19924;-45
2022/07/04 13:01:50;;;;;;;;;;;;;;;;;;5046693;28;19996;-45
2022/07/04 13:04:16;;;;;;;;;;;;;;;;;;5042621;28;19935;-45
2022/07/04 13:06:41;;;;;;;;;;;;;;;;;;5038292;28;19932;-42
2022/07/04 13:09:09;;;;;;;;;;;;;;;;;;5039453;28;19923;-46
2022/07/04 13:14:18;;;;;;;;;;;;;;;;;;5036366;28;19931;-46
2022/07/04 13:16:45;;;;;;;;;;;;;;;;;;5045597;28;20284;-47
2022/07/04 13:19:10;;;;;;;;;;;;;;;;;;5042078;28;20382;-45
2022/07/04 13:21:36;;;;;;;;;;;;;;;;;;5038603;28;19917;-45
2022/07/04 13:24:01;;;;;;;;;;;;;;;;;;5039836;28;20364;-43
2022/07/04 13:26:27;;;;;;;;;;;;;;;;;;5041041;28;19924;-47
2022/07/04 13:28:53;;;;;;;;;;;;;;;;;;5044387;28;20360;-45
2022/07/04 13:31:18;;;;;;;;;;;;;;;;;;5039986;28;19913;-45
2022/07/04 13:33:43;;;;;;;;;;;;;;;;;;5040706;28;19924;-44
2022/07/04 13:36:08;;;;;;;;;;;;;;;;;;5044967;28;19913;-43
2022/07/04 13:38:33;;;;;;;;;;;;;;;;;;5043964;28;19952;-45
2022/07/04 13:40:58;;;;;;;;;;;;;;;;;;5043481;28;19996;-46
2022/07/04 13:43:23;;;;;;;;;;;;;;;;;;5048110;28;19913;-45
2022/07/04 13:45:49;;;;;;;;;;;;;;;;;;5044649;28;20053;-43
2022/07/04 13:48:14;;;;;;;;;;;;;;;;;;5047612;28;19943;-47
2022/07/04 13:50:39;;;;;;;;;;;;;;;;;;5044684;28;20006;-44
2022/07/04 13:53:04;;;;;;;;;;;;;;;;;;5044281;28;19920;-45
2022/07/04 13:55:29;;;;;;;;;;;;;;;;;;5037483;28;19924;-43
2022/07/04 13:57:54;;;;;;;;;;;;;;;;;;5042126;28;19920;-43
2022/07/04 14:00:19;;;;;;;;;;;;;;;;;;5046458;28;20245;-45
2022/07/04 14:02:45;;;;;;;;;;;;;;;;;;5045539;28;19932;-44
2022/07/04 14:05:10;;;;;;;;;;;;;;;;;;5042452;28;20003;-46
2022/07/04 14:07:35;;;;;;;;;;;;;;;;;;5040026;28;20284;-44
2022/07/04 14:10:00;;;;;;;;;;;;;;;;;;5040775;28;19913;-49
2022/07/04 14:12:25;;;;;;;;;;;;;;;;;;5047863;28;20455;-46
2022/07/04 14:14:50;;;;;;;;;;;;;;;;;;5049724;28;19931;-45
2022/07/04 14:17:16;;;;;;;;;;;;;;;;;;5046949;28;20381;-45
2022/07/04 14:19:41;;;;;;;;;;;;;;;;;;5053423;28;19913;-43
2022/07/04 14:22:06;;;;;;;;;;;;;;;;;;5049471;28;19924;-46
2022/07/04 14:24:31;;;;;;;;;;;;;;;;;;5045844;28;19920;-47
2022/07/04 14:26:56;;;;;;;;;;;;;;;;;;5051711;28;20069;-45
2022/07/04 14:29:21;;;;;;;;;;;;;;;;;;5057123;28;19920;-45
2022/07/04 14:31:46;;;;;;;;;;;;;;;;;;5048969;28;19912;-44
2022/07/04 14:34:12;;;;;;;;;;;;;;;;;;5052328;28;19947;-44
2022/07/04 14:36:37;;;;;;;;;;;;;;;;;;5052751;28;20287;-43
2022/07/04 14:39:02;;;;;;;;;;;;;;;;;;5048695;28;19919;-45
2022/07/04 14:41:28;;;;;;;;;;;;;;;;;;5048028;28;20285;-46
2022/07/04 14:43:54;;;;;;;;;;;;;;;;;;5048033;28;20334;-45
2022/07/04 14:46:19;;;;;;;;;;;;;;;;;;5048435;28;19919;-45
2022/07/04 14:48:44;;;;;;;;;;;;;;;;;;5050619;28;20439;-44
2022/07/04 14:51:09;;;;;;;;;;;;;;;;;;5044313;28;20012;-43
2022/07/04 14:53:34;;;;;;;;;;;;;;;;;;5049335;28;19917;-46
2022/07/04 14:56:00;;;;;;;;;;;;;;;;;;5051478;28;19927;-45
2022/07/04 14:58:25;;;;;;;;;;;;;;;;;;5049145;28;20012;-44
2022/07/04 15:00:50;;;;;;;;;;;;;;;;;;5051642;28;19916;-47
2022/07/04 15:03:16;;;;;;;;;;;;;;;;;;5048040;28;19919;-43
2022/07/04 15:05:41;;;;;;;;;;;;;;;;;;5044130;28;19912;-46
2022/07/04 15:08:06;;;;;;;;;;;;;;;;;;5042380;28;20330;-47
2022/07/04 15:10:31;;;;;;;;;;;;;;;;;;5047158;28;19913;-44
2022/07/04 15:12:56;;;;;;;;;;;;;;;;;;5046300;28;20337;-45
2022/07/04 15:15:22;;;;;;;;;;;;;;;;;;5046461;28;19952;-46
2022/07/04 15:17:47;;;;;;;;;;;;;;;;;;5050195;28;19921;-45
2022/07/04 15:25:40;;;;;;;;;;;;;;;;;;5049718;28;19920;-45
2022/07/04 15:28:05;;;;;;;;;;;;;;;;;;5048823;28;19912;-46
2022/07/04 15:30:30;;;;;;;;;;;;;;;;;;5051524;28;20420;-47
2022/07/04 15:32:55;;;;;;;;;;;;;;;;;;5053259;28;19928;-45
2022/07/04 15:35:21;;;;;;;;;;;;;;;;;;5047590;28;19912;-45
2022/07/04 15:37:46;;;;;;;;;;;;;;;;;;5055579;28;19920;-43
2022/07/04 15:40:11;;;;;;;;;;;;;;;;;;5052164;28;19924;-48
2022/07/04 15:42:36;;;;;;;;;;;;;;;;;;5047674;28;20387;-45
2022/07/04 15:45:01;;;;;;;;;;;;;;;;;;5053929;28;19919;-46
2022/07/04 15:47:26;;;;;;;;;;;;;;;;;;5052228;28;19919;-45
2022/07/04 15:49:51;;;;;;;;;;;;;;;;;;5052517;28;19935;-44
2022/07/04 15:52:16;;;;;;;;;;;;;;;;;;5052505;28;20364;-44
2022/07/04 15:54:41;;;;;;;;;;;;;;;;;;5052752;28;19917;-43
2022/07/04 15:57:07;;;;;;;;;;;;;;;;;;5060505;28;19916;-43
2022/07/04 15:59:32;;;;;;;;;;;;;;;;;;5054452;28;19919;-43
2022/07/04 16:01:57;;;;;;;;;;;;;;;;;;5052509;28;20099;-44
2022/07/04 16:04:22;;;;;;;;;;;;;;;;;;5048760;28;19948;-43
2022/07/04 16:06:47;;;;;;;;;;;;;;;;;;5052662;28;19920;-45
2022/07/04 16:09:14;;;;;;;;;;;;;;;;;;5050893;28;20413;-43
2022/07/04 16:11:41;;;;;;;;;;;;;;;;;;5046154;28;22319;-45
2022/07/04 16:14:06;;;;;;;;;;;;;;;;;;5049534;28;20315;-44
2022/07/04 16:16:31;;;;;;;;;;;;;;;;;;5054685;28;19962;-43
2022/07/04 16:18:56;;;;;;;;;;;;;;;;;;5058360;28;19987;-44
2022/07/04 16:21:22;;;;;;;;;;;;;;;;;;5058204;28;20004;-44
2022/07/04 16:23:47;;;;;;;;;;;;;;;;;;5058018;28;19912;-43
2022/07/04 16:26:12;;;;;;;;;;;;;;;;;;5058223;28;19908;-44
2022/07/04 16:28:37;;;;;;;;;;;;;;;;;;5058192;28;19957;-43
2022/07/04 16:31:02;;;;;;;;;;;;;;;;;;5058265;28;19909;-44
2022/07/04 16:33:28;;;;;;;;;;;;;;;;;;5057877;28;20420;-44
2022/07/04 16:35:53;;;;;;;;;;;;;;;;;;5058101;28;19909;-45
2022/07/04 16:38:18;;;;;;;;;;;;;;;;;;5058038;28;19971;-47
2022/07/04 16:40:43;;;;;;;;;;;;;;;;;;5058059;28;19974;-44
2022/07/04 16:43:08;;;;;;;;;;;;;;;;;;5057985;28;20299;-44
2022/07/04 16:45:34;;;;;;;;;;;;;;;;;;5057830;28;19909;-45
2022/07/04 16:47:59;;;;;;;;;;;;;;;;;;5058010;28;19909;-43
2022/07/04 16:50:24;;;;;;;;;;;;;;;;;;5057686;28;19908;-42
2022/07/04 16:52:50;;;;;;;;;;;;;;;;;;5057859;28;19916;-42
2022/07/04 16:55:15;;;;;;;;;;;;;;;;;;5057608;28;20360;-47
2022/07/04 16:57:40;;;;;;;;;;;;;;;;;;5057540;28;20279;-43